Time;durP1;ratioP1;P1;durP2;ratioP2;P2;SDS_P1;SDS_P2;PMS_P1;PMS_P2;Temp;Humidity;BMP_temperature;BMP_pressure;BME280_temperature;BME280_humidity;BME280_pressure;Samples;Min_cycle;Max_cycle;Signal;HPM_P1;HPM_P2
2022/01/29 00:00:49;;;;;;;;;;;5.40;99.90;;;;;;5117396;27;19912;-72
2022/01/29 00:03:15;;;;;;;;;;;5.40;99.90;;;;;;5111632;27;19945;-73
2022/01/29 00:05:41;;;;;;;;;;;5.30;99.90;;;;;;5124879;27;20001;-73
2022/01/29 00:08:06;;;;;;;;;;;5.20;99.90;;;;;;5123173;27;19968;-74
2022/01/29 00:10:32;;;;;;;;;;;5.20;99.90;;;;;;5124976;27;19953;-74
2022/01/29 00:12:58;;;;;;;;;;;5.20;99.90;;;;;;5119520;27;20365;-73
2022/01/29 00:15:23;;;;;;;;;;;5.10;99.90;;;;;;5124136;27;19961;-75
2022/01/29 00:17:49;;;;;;;;;;;5.20;99.90;;;;;;5125095;27;19935;-73
2022/01/29 00:20:15;;;;;;;;;;;5.10;99.90;;;;;;5119807;27;20327;-72
2022/01/29 00:22:41;;;;;;;;;;;5.10;99.90;;;;;;5124654;27;19919;-71
2022/01/29 00:25:07;;;;;;;;;;;5.10;99.90;;;;;;5118735;27;19907;-72
2022/01/29 00:27:35;;;;;;;;;;;5.00;99.90;;;;;;5127909;27;20005;-74
2022/01/29 00:30:06;;;;;;;;;;;5.30;99.90;;;;;;5125219;27;19907;-72
2022/01/29 00:32:31;;;;;;;;;;;5.50;99.90;;;;;;5125731;27;19968;-74
2022/01/29 00:34:57;;;;;;;;;;;5.70;99.90;;;;;;5123817;27;20330;-71
2022/01/29 00:37:23;;;;;;;;;;;6.10;99.90;;;;;;5113832;27;19918;-73
2022/01/29 00:39:48;;;;;;;;;;;6.40;99.90;;;;;;5122161;27;20053;-73
2022/01/29 00:42:14;;;;;;;;;;;6.60;99.90;;;;;;5127297;27;20353;-71
2022/01/29 00:44:39;;;;;;;;;;;6.80;99.90;;;;;;5119957;27;20373;-71
2022/01/29 00:47:05;;;;;;;;;;;6.90;99.90;;;;;;5119802;27;19950;-73
2022/01/29 00:49:31;;;;;;;;;;;7.10;99.90;;;;;;5128370;27;19923;-73
2022/01/29 00:51:56;;;;;;;;;;;7.10;99.90;;;;;;5121724;27;20317;-74
2022/01/29 00:54:22;;;;;;;;;;;7.20;99.90;;;;;;5128121;27;19955;-72
2022/01/29 00:56:47;;;;;;;;;;;7.20;99.90;;;;;;5121907;27;19919;-73
2022/01/29 00:59:13;;;;;;;;;;;7.20;99.90;;;;;;5122603;27;19923;-73
2022/01/29 01:01:39;;;;;;;;;;;7.10;99.90;;;;;;5124024;27;20340;-73
2022/01/29 01:04:04;;;;;;;;;;;7.10;99.90;;;;;;5127454;27;19911;-73
2022/01/29 01:06:30;;;;;;;;;;;6.90;99.90;;;;;;5125290;27;20336;-72
2022/01/29 01:08:55;;;;;;;;;;;6.90;99.90;;;;;;5125906;27;19928;-75
2022/01/29 01:11:21;;;;;;;;;;;6.90;99.90;;;;;;5121770;28;20456;-73
2022/01/29 01:13:47;;;;;;;;;;;7.00;99.90;;;;;;5127013;28;19916;-71
2022/01/29 01:16:12;;;;;;;;;;;6.90;99.90;;;;;;5119214;28;20373;-75
2022/01/29 01:18:38;;;;;;;;;;;6.80;99.90;;;;;;5120267;27;19915;-73
2022/01/29 01:21:03;;;;;;;;;;;6.50;99.90;;;;;;5124276;28;19916;-72
2022/01/29 01:23:29;;;;;;;;;;;6.30;99.90;;;;;;5126606;28;19923;-74
2022/01/29 01:25:55;;;;;;;;;;;6.10;99.90;;;;;;5125986;28;19911;-72
2022/01/29 01:28:20;;;;;;;;;;;6.00;99.90;;;;;;5123451;28;19919;-71
2022/01/29 01:30:46;;;;;;;;;;;5.90;99.90;;;;;;5127893;28;19957;-71
2022/01/29 01:33:12;;;;;;;;;;;5.80;99.90;;;;;;5129721;28;19918;-72
2022/01/29 01:35:45;;;;;;;;;;;5.80;99.90;;;;;;5125093;27;19912;-74
2022/01/29 01:38:19;;;;;;;;;;;5.80;99.90;;;;;;5114470;28;19981;-71
2022/01/29 01:40:50;;;;;;;;;;;5.80;99.90;;;;;;5125447;28;20032;-73
2022/01/29 01:43:16;;;;;;;;;;;5.70;99.90;;;;;;5120555;28;19972;-72
2022/01/29 01:45:42;;;;;;;;;;;5.60;99.90;;;;;;5118513;28;19955;-72
2022/01/29 01:48:08;;;;;;;;;;;5.70;99.90;;;;;;5121584;28;20361;-74
2022/01/29 01:50:34;;;;;;;;;;;5.60;99.90;;;;;;5127564;28;19934;-73
2022/01/29 01:53:00;;;;;;;;;;;5.50;99.90;;;;;;5127871;27;20291;-71
2022/01/29 01:55:26;;;;;;;;;;;5.40;99.90;;;;;;5121959;27;19911;-71
2022/01/29 01:57:52;;;;;;;;;;;5.40;99.90;;;;;;5127323;28;19912;-71
2022/01/29 02:00:18;;;;;;;;;;;5.40;99.90;;;;;;5128940;27;19922;-72
2022/01/29 02:02:44;;;;;;;;;;;5.40;99.90;;;;;;5130228;27;19983;-73
2022/01/29 02:05:10;;;;;;;;;;;5.40;99.90;;;;;;5128922;27;19911;-71
2022/01/29 02:07:36;;;;;;;;;;;5.80;99.90;;;;;;5128209;27;20011;-72
2022/01/29 02:10:03;;;;;;;;;;;5.90;99.90;;;;;;5131151;27;19919;-73
2022/01/29 02:12:32;;;;;;;;;;;6.10;99.90;;;;;;5128762;27;19918;-72
2022/01/29 02:15:02;;;;;;;;;;;6.30;99.90;;;;;;5127183;27;19919;-75
2022/01/29 02:17:28;;;;;;;;;;;6.30;99.90;;;;;;5115453;27;20014;-72
2022/01/29 02:19:53;;;;;;;;;;;6.30;99.90;;;;;;5128009;27;20006;-72
2022/01/29 02:22:19;;;;;;;;;;;6.20;99.90;;;;;;5129056;27;20354;-73
2022/01/29 02:24:44;;;;;;;;;;;6.00;99.90;;;;;;5130753;27;19911;-72
2022/01/29 02:27:10;;;;;;;;;;;5.90;99.90;;;;;;5123213;27;19911;-73
2022/01/29 02:29:36;;;;;;;;;;;5.80;99.90;;;;;;5130413;27;19999;-73
2022/01/29 02:32:02;;;;;;;;;;;5.80;99.90;;;;;;5125788;27;20384;-73
2022/01/29 02:34:29;;;;;;;;;;;5.80;99.90;;;;;;5131562;27;20038;-72
2022/01/29 02:36:55;;;;;;;;;;;5.80;99.90;;;;;;5119151;27;19911;-71
2022/01/29 02:39:22;;;;;;;;;;;5.70;99.90;;;;;;5128297;27;20365;-73
2022/01/29 02:41:47;;;;;;;;;;;5.90;99.90;;;;;;5128410;27;19911;-73
2022/01/29 02:44:18;;;;;;;;;;;6.00;99.90;;;;;;5130015;27;19934;-72
2022/01/29 02:49:13;;;;;;;;;;;6.00;99.90;;;;;;5125809;27;20426;-72
2022/01/29 02:51:43;;;;;;;;;;;6.00;99.90;;;;;;5118919;27;19943;-72
2022/01/29 02:54:08;;;;;;;;;;;6.10;99.90;;;;;;5127349;27;20416;-72
2022/01/29 02:56:34;;;;;;;;;;;6.20;99.90;;;;;;5130180;27;19911;-74
2022/01/29 02:59:00;;;;;;;;;;;6.20;99.90;;;;;;5125332;27;19984;-73
2022/01/29 03:01:26;;;;;;;;;;;6.30;99.90;;;;;;5131074;27;19915;-74
2022/01/29 03:03:51;;;;;;;;;;;6.20;99.90;;;;;;5128489;27;19920;-73
2022/01/29 03:06:17;;;;;;;;;;;6.20;99.90;;;;;;5126363;27;20367;-72
2022/01/29 03:08:42;;;;;;;;;;;6.10;99.90;;;;;;5120229;27;19915;-72
2022/01/29 03:11:08;;;;;;;;;;;5.90;99.90;;;;;;5127847;27;19999;-73
2022/01/29 03:13:34;;;;;;;;;;;5.80;99.90;;;;;;5124679;27;19919;-72
2022/01/29 03:15:59;;;;;;;;;;;5.70;99.90;;;;;;5128027;27;20010;-72
2022/01/29 03:18:25;;;;;;;;;;;5.70;99.90;;;;;;5120662;27;19927;-74
2022/01/29 03:20:50;;;;;;;;;;;5.70;99.90;;;;;;5125777;27;19920;-72
2022/01/29 03:23:16;;;;;;;;;;;5.70;99.90;;;;;;5120507;27;20391;-71
2022/01/29 03:25:41;;;;;;;;;;;5.70;99.90;;;;;;5128435;27;19919;-71
2022/01/29 03:28:07;;;;;;;;;;;5.70;99.90;;;;;;5126139;27;19912;-72
2022/01/29 03:30:33;;;;;;;;;;;5.70;99.90;;;;;;5122454;27;19995;-72
2022/01/29 03:32:58;;;;;;;;;;;5.60;99.90;;;;;;5128559;27;19911;-72
2022/01/29 03:35:24;;;;;;;;;;;5.60;99.90;;;;;;5128423;27;20013;-72
2022/01/29 03:37:49;;;;;;;;;;;5.50;99.90;;;;;;5128780;27;19912;-72
2022/01/29 03:40:15;;;;;;;;;;;5.50;99.90;;;;;;5121089;27;19916;-75
2022/01/29 03:42:56;;;;;;;;;;;5.40;99.90;;;;;;5127562;27;19961;-71
2022/01/29 03:45:21;;;;;;;;;;;5.40;99.90;;;;;;5126153;27;19959;-73
2022/01/29 03:47:47;;;;;;;;;;;5.30;99.90;;;;;;5116210;27;19935;-71
2022/01/29 03:50:13;;;;;;;;;;;5.40;99.90;;;;;;5117138;27;20515;-71
2022/01/29 03:52:38;;;;;;;;;;;5.30;99.90;;;;;;5119798;27;19966;-72
2022/01/29 03:55:05;;;;;;;;;;;5.20;99.90;;;;;;5123517;27;19920;-72
2022/01/29 03:57:31;;;;;;;;;;;5.20;99.90;;;;;;5127848;27;19907;-72
2022/01/29 03:59:56;;;;;;;;;;;5.20;99.90;;;;;;5126160;27;19941;-72
2022/01/29 04:02:22;;;;;;;;;;;5.20;99.90;;;;;;5126774;27;19922;-73
2022/01/29 04:04:47;;;;;;;;;;;5.10;99.90;;;;;;5123139;27;19918;-75
2022/01/29 04:07:14;;;;;;;;;;;5.00;99.90;;;;;;5122954;27;19919;-74
2022/01/29 04:09:46;;;;;;;;;;;4.90;99.90;;;;;;5124163;27;19919;-72
2022/01/29 04:12:13;;;;;;;;;;;5.00;99.90;;;;;;5126916;27;19911;-75
2022/01/29 04:14:39;;;;;;;;;;;5.00;99.90;;;;;;5123484;27;19911;-73
2022/01/29 04:17:05;;;;;;;;;;;5.00;99.90;;;;;;5122019;27;19963;-72
2022/01/29 04:19:35;;;;;;;;;;;5.00;99.90;;;;;;5131924;27;19915;-74
2022/01/29 04:22:04;;;;;;;;;;;5.10;99.90;;;;;;5130614;27;20001;-74
2022/01/29 04:24:30;;;;;;;;;;;5.20;99.90;;;;;;5130591;27;19914;-72
2022/01/29 04:26:56;;;;;;;;;;;5.20;99.90;;;;;;5129856;27;19912;-72
2022/01/29 04:29:22;;;;;;;;;;;5.30;99.90;;;;;;5124987;27;19911;-71
2022/01/29 04:32:00;;;;;;;;;;;5.30;99.90;;;;;;5117940;27;19918;-71
2022/01/29 04:34:26;;;;;;;;;;;5.30;99.90;;;;;;5129255;27;19965;-72
2022/01/29 04:36:52;;;;;;;;;;;5.30;99.90;;;;;;5120798;27;20446;-73
2022/01/29 04:39:17;;;;;;;;;;;5.30;99.90;;;;;;5121310;27;19959;-72
2022/01/29 04:41:43;;;;;;;;;;;5.20;99.90;;;;;;5120427;27;19916;-72
2022/01/29 04:44:08;;;;;;;;;;;5.20;99.90;;;;;;5127510;27;19911;-72
2022/01/29 04:46:34;;;;;;;;;;;5.10;99.90;;;;;;5126417;27;21722;-72
2022/01/29 04:49:00;;;;;;;;;;;5.10;99.90;;;;;;5119066;27;19912;-73
2022/01/29 04:51:25;;;;;;;;;;;5.00;99.90;;;;;;5118633;27;19959;-73
2022/01/29 04:53:51;;;;;;;;;;;5.00;99.90;;;;;;5123281;27;19912;-73
2022/01/29 04:56:17;;;;;;;;;;;5.00;99.90;;;;;;5120355;27;19947;-72
2022/01/29 04:58:43;;;;;;;;;;;5.00;99.90;;;;;;5126646;27;20684;-73
2022/01/29 05:01:08;;;;;;;;;;;4.90;99.90;;;;;;5126859;27;20285;-73
2022/01/29 05:03:34;;;;;;;;;;;4.80;99.90;;;;;;5125979;27;19915;-74
2022/01/29 05:06:00;;;;;;;;;;;4.70;99.90;;;;;;5124127;27;19920;-74
2022/01/29 05:08:25;;;;;;;;;;;4.70;99.90;;;;;;5124247;27;19920;-73
2022/01/29 05:10:52;;;;;;;;;;;4.60;99.90;;;;;;5130781;27;19907;-74
2022/01/29 05:13:22;;;;;;;;;;;4.50;99.90;;;;;;5123843;28;19935;-72
2022/01/29 05:29:10;;;;;;;;;;;4.50;99.90;;;;;;5121875;28;19922;-73
2022/01/29 05:31:36;;;;;;;;;;;4.50;99.90;;;;;;5122789;27;20006;-71
2022/01/29 05:34:02;;;;;;;;;;;4.50;99.90;;;;;;5126354;27;19927;-72
2022/01/29 05:36:27;;;;;;;;;;;4.50;99.90;;;;;;5126753;27;20250;-71
2022/01/29 05:38:53;;;;;;;;;;;4.50;99.90;;;;;;5125030;27;19915;-74
2022/01/29 05:41:19;;;;;;;;;;;4.50;99.90;;;;;;5128053;27;20789;-74
2022/01/29 05:43:44;;;;;;;;;;;4.40;99.90;;;;;;5120009;27;20262;-74
2022/01/29 05:46:11;;;;;;;;;;;4.30;99.90;;;;;;5131325;27;19915;-72
2022/01/29 05:48:36;;;;;;;;;;;4.30;99.90;;;;;;5121011;27;19916;-73
2022/01/29 05:51:02;;;;;;;;;;;4.30;99.90;;;;;;5128478;27;20002;-72
2022/01/29 05:53:27;;;;;;;;;;;4.30;99.90;;;;;;5126523;27;19911;-73
2022/01/29 05:55:53;;;;;;;;;;;4.30;99.90;;;;;;5129247;27;20417;-74
2022/01/29 05:58:18;;;;;;;;;;;4.30;99.90;;;;;;5120218;27;19976;-72
2022/01/29 06:00:44;;;;;;;;;;;4.30;99.90;;;;;;5122977;27;19911;-73
2022/01/29 06:03:10;;;;;;;;;;;4.40;99.90;;;;;;5131876;27;20507;-74
2022/01/29 06:05:36;;;;;;;;;;;4.30;99.90;;;;;;5134693;27;19932;-73
2022/01/29 06:08:02;;;;;;;;;;;4.20;99.90;;;;;;5121963;27;19912;-73
2022/01/29 06:10:28;;;;;;;;;;;4.20;99.90;;;;;;5125056;27;20332;-74
2022/01/29 06:12:57;;;;;;;;;;;4.20;99.90;;;;;;5130848;27;20465;-73
2022/01/29 06:15:25;;;;;;;;;;;4.20;99.90;;;;;;5128137;27;20459;-73
2022/01/29 06:17:51;;;;;;;;;;;4.30;99.90;;;;;;5132320;27;19912;-74
2022/01/29 06:20:16;;;;;;;;;;;4.30;99.90;;;;;;5125655;27;19916;-74
2022/01/29 06:22:42;;;;;;;;;;;4.40;99.90;;;;;;5129070;27;19911;-74
2022/01/29 06:25:08;;;;;;;;;;;4.40;99.90;;;;;;5133573;27;20284;-74
2022/01/29 06:27:33;;;;;;;;;;;4.40;99.90;;;;;;5129211;27;19946;-71
2022/01/29 06:29:59;;;;;;;;;;;4.30;99.90;;;;;;5128670;27;20501;-74
2022/01/29 06:32:25;;;;;;;;;;;4.20;99.90;;;;;;5131228;27;20357;-74
2022/01/29 06:34:50;;;;;;;;;;;4.20;99.90;;;;;;5133382;27;19984;-73
2022/01/29 06:37:16;;;;;;;;;;;4.20;99.90;;;;;;5124609;27;19933;-73
2022/01/29 06:39:41;;;;;;;;;;;4.30;99.90;;;;;;5127119;27;20526;-72
2022/01/29 06:42:07;;;;;;;;;;;4.20;99.90;;;;;;5131741;27;19978;-73
2022/01/29 06:44:32;;;;;;;;;;;4.20;99.90;;;;;;5126011;27;19912;-76
2022/01/29 06:46:58;;;;;;;;;;;4.10;99.90;;;;;;5127271;27;19912;-72
2022/01/29 06:49:24;;;;;;;;;;;4.10;99.90;;;;;;5126317;27;20009;-71
2022/01/29 06:51:49;;;;;;;;;;;3.90;99.90;;;;;;5122790;27;20011;-73
2022/01/29 06:54:15;;;;;;;;;;;3.90;99.90;;;;;;5125993;27;19912;-75
2022/01/29 06:56:41;;;;;;;;;;;3.90;99.90;;;;;;5115844;27;19955;-75
2022/01/29 06:59:06;;;;;;;;;;;3.90;99.90;;;;;;5122206;27;19926;-72
2022/01/29 07:01:32;;;;;;;;;;;3.90;99.90;;;;;;5128125;27;19923;-72
2022/01/29 07:03:57;;;;;;;;;;;4.00;99.90;;;;;;5118656;27;19955;-75
2022/01/29 07:06:23;;;;;;;;;;;4.00;99.90;;;;;;5123949;27;21539;-73
2022/01/29 07:08:49;;;;;;;;;;;4.00;99.90;;;;;;5129596;27;19919;-72
2022/01/29 07:11:19;;;;;;;;;;;4.00;99.90;;;;;;5121553;27;20006;-73
2022/01/29 07:13:44;;;;;;;;;;;4.00;99.90;;;;;;5126518;27;20284;-73
2022/01/29 07:16:10;;;;;;;;;;;4.00;99.90;;;;;;5119877;27;19919;-75
2022/01/29 07:18:35;;;;;;;;;;;4.10;99.90;;;;;;5125801;27;19915;-74
2022/01/29 07:21:01;;;;;;;;;;;4.20;99.90;;;;;;5127174;27;19935;-73
2022/01/29 07:23:27;;;;;;;;;;;4.30;99.90;;;;;;5125947;27;19923;-73
2022/01/29 07:25:52;;;;;;;;;;;4.40;99.90;;;;;;5129270;27;19922;-73
2022/01/29 07:28:18;;;;;;;;;;;4.50;99.90;;;;;;5126922;27;20317;-74
2022/01/29 07:30:43;;;;;;;;;;;4.50;99.90;;;;;;5125071;27;19916;-75
2022/01/29 07:33:09;;;;;;;;;;;4.50;99.90;;;;;;5127073;27;20363;-74
2022/01/29 07:35:35;;;;;;;;;;;4.70;99.90;;;;;;5121217;27;19918;-73
2022/01/29 07:38:00;;;;;;;;;;;4.80;99.90;;;;;;5121555;27;19928;-73
2022/01/29 07:40:26;;;;;;;;;;;4.80;99.90;;;;;;5125289;27;20010;-75
2022/01/29 07:42:51;;;;;;;;;;;4.90;99.90;;;;;;5128715;27;19912;-74
2022/01/29 07:45:17;;;;;;;;;;;4.90;99.90;;;;;;5131564;27;19908;-74
2022/01/29 07:47:42;;;;;;;;;;;4.90;99.90;;;;;;5123095;27;19990;-73
2022/01/29 07:50:08;;;;;;;;;;;4.90;99.90;;;;;;5116542;27;19918;-74
2022/01/29 07:52:34;;;;;;;;;;;5.00;99.90;;;;;;5127263;27;19916;-72
2022/01/29 07:54:59;;;;;;;;;;;5.20;99.90;;;;;;5126187;27;19976;-73
2022/01/29 07:57:25;;;;;;;;;;;5.20;99.90;;;;;;5128726;27;19938;-74
2022/01/29 07:59:50;;;;;;;;;;;5.20;99.90;;;;;;5124559;27;19915;-74
2022/01/29 08:02:16;;;;;;;;;;;5.30;99.90;;;;;;5127153;27;19951;-74
2022/01/29 08:04:42;;;;;;;;;;;5.30;99.90;;;;;;5116843;27;19915;-73
2022/01/29 08:07:07;;;;;;;;;;;5.50;99.90;;;;;;5131241;27;19915;-72
2022/01/29 08:09:33;;;;;;;;;;;5.80;99.90;;;;;;5131495;27;19956;-76
2022/01/29 08:11:58;;;;;;;;;;;5.60;99.90;;;;;;5130065;27;19911;-75
2022/01/29 08:14:24;;;;;;;;;;;5.70;99.90;;;;;;5134107;27;19919;-73
2022/01/29 08:16:49;;;;;;;;;;;5.80;99.90;;;;;;5125899;27;19916;-73
2022/01/29 08:19:15;;;;;;;;;;;5.90;99.90;;;;;;5120571;27;19962;-74
2022/01/29 08:21:41;;;;;;;;;;;6.00;99.90;;;;;;5124196;27;20018;-72
2022/01/29 08:24:07;;;;;;;;;;;6.00;99.90;;;;;;5130712;27;19945;-72
2022/01/29 08:26:33;;;;;;;;;;;6.20;99.90;;;;;;5123247;27;19912;-73
2022/01/29 08:28:59;;;;;;;;;;;6.50;99.90;;;;;;5131771;27;20281;-74
2022/01/29 08:31:24;;;;;;;;;;;6.70;99.90;;;;;;5122642;27;19912;-76
2022/01/29 08:33:50;;;;;;;;;;;6.80;99.90;;;;;;5130592;27;19998;-72
2022/01/29 08:36:15;;;;;;;;;;;6.90;99.90;;;;;;5121793;27;19912;-73
2022/01/29 08:38:41;;;;;;;;;;;6.90;99.90;;;;;;5118832;27;19984;-72
2022/01/29 08:41:06;;;;;;;;;;;7.30;99.90;;;;;;5113664;27;20285;-70
2022/01/29 08:43:33;;;;;;;;;;;7.50;99.90;;;;;;5131559;27;20006;-69
2022/01/29 08:45:59;;;;;;;;;;;7.70;99.90;;;;;;5129437;27;19919;-68
2022/01/29 08:48:24;;;;;;;;;;;7.80;99.90;;;;;;5127588;27;20617;-68
2022/01/29 08:50:50;;;;;;;;;;;7.90;99.90;;;;;;5124500;27;19991;-68
2022/01/29 08:53:17;;;;;;;;;;;8.00;99.90;;;;;;5122780;27;20333;-68
2022/01/29 08:55:43;;;;;;;;;;;8.00;99.90;;;;;;5119368;27;19915;-68
2022/01/29 08:58:09;;;;;;;;;;;8.10;99.90;;;;;;5122679;27;19911;-68
2022/01/29 09:00:36;;;;;;;;;;;8.20;99.90;;;;;;5132383;27;19911;-67
2022/01/29 09:03:01;;;;;;;;;;;8.20;99.90;;;;;;5131704;27;20399;-68
2022/01/29 09:05:28;;;;;;;;;;;8.00;99.90;;;;;;5127405;27;19920;-69
2022/01/29 09:07:57;;;;;;;;;;;8.00;99.90;;;;;;5122805;27;19911;-69
2022/01/29 09:10:26;;;;;;;;;;;8.10;99.90;;;;;;5130663;27;19911;-69
2022/01/29 09:12:53;;;;;;;;;;;8.10;99.90;;;;;;5123152;27;20000;-67
2022/01/29 09:15:19;;;;;;;;;;;8.10;99.90;;;;;;5132790;27;20348;-68
2022/01/29 09:17:45;;;;;;;;;;;8.20;99.90;;;;;;5127978;28;20416;-67
2022/01/29 09:20:11;;;;;;;;;;;8.50;99.90;;;;;;5123392;28;20014;-69
2022/01/29 09:22:37;;;;;;;;;;;8.60;99.90;;;;;;5129917;28;19907;-68
2022/01/29 09:25:04;;;;;;;;;;;8.70;99.90;;;;;;5129976;27;19914;-69
2022/01/29 09:27:29;;;;;;;;;;;8.90;99.90;;;;;;5126067;28;19951;-68
2022/01/29 09:29:55;;;;;;;;;;;8.90;99.90;;;;;;5120486;28;19935;-68
2022/01/29 09:32:20;;;;;;;;;;;9.00;99.90;;;;;;5124717;28;20308;-71
2022/01/29 09:34:49;;;;;;;;;;;9.10;99.90;;;;;;5125625;28;19919;-66
2022/01/29 09:37:19;;;;;;;;;;;9.20;99.90;;;;;;5124965;28;19908;-68
2022/01/29 09:39:52;;;;;;;;;;;9.40;99.90;;;;;;5117456;27;19968;-67
2022/01/29 09:42:24;;;;;;;;;;;9.60;99.90;;;;;;5118504;28;19931;-69
2022/01/29 09:44:52;;;;;;;;;;;9.70;99.90;;;;;;5115424;27;19955;-67
2022/01/29 09:47:23;;;;;;;;;;;9.70;99.90;;;;;;5125759;28;19955;-68
2022/01/29 09:49:50;;;;;;;;;;;9.80;99.90;;;;;;5127121;28;19935;-67
2022/01/29 09:52:15;;;;;;;;;;;9.70;99.90;;;;;;5122895;27;19918;-65
2022/01/29 09:54:41;;;;;;;;;;;9.70;99.90;;;;;;5129309;28;19908;-67
2022/01/29 09:57:07;;;;;;;;;;;9.90;99.90;;;;;;5127741;28;19907;-68
2022/01/29 09:59:32;;;;;;;;;;;9.80;99.90;;;;;;5126304;28;19931;-67
2022/01/29 10:01:58;;;;;;;;;;;10.00;99.90;;;;;;5128638;28;19911;-67
2022/01/29 10:04:24;;;;;;;;;;;10.00;99.90;;;;;;5128807;27;19919;-67
2022/01/29 10:07:09;;;;;;;;;;;10.00;99.90;;;;;;5118295;28;19998;-68
2022/01/29 10:09:34;;;;;;;;;;;10.00;99.90;;;;;;5115349;28;19919;-67
2022/01/29 10:12:16;;;;;;;;;;;10.20;99.90;;;;;;5126463;27;19936;-66
2022/01/29 10:14:46;;;;;;;;;;;10.40;99.90;;;;;;5125639;28;19912;-67
2022/01/29 10:17:11;;;;;;;;;;;10.50;99.90;;;;;;5128157;27;19912;-65
2022/01/29 10:19:37;;;;;;;;;;;10.40;99.90;;;;;;5128773;27;19918;-67
2022/01/29 10:22:02;;;;;;;;;;;10.20;99.90;;;;;;5129799;27;19951;-66
2022/01/29 10:24:28;;;;;;;;;;;10.20;99.90;;;;;;5128469;27;19915;-67
2022/01/29 10:26:54;;;;;;;;;;;10.00;99.90;;;;;;5130137;27;19970;-68
2022/01/29 10:29:23;;;;;;;;;;;9.90;99.90;;;;;;5134318;27;19907;-67
2022/01/29 10:31:53;;;;;;;;;;;9.80;99.90;;;;;;5126879;27;19934;-66
2022/01/29 10:34:27;;;;;;;;;;;9.60;99.90;;;;;;5135202;27;19919;-67
2022/01/29 10:37:11;;;;;;;;;;;9.60;99.90;;;;;;5128098;27;19912;-67
2022/01/29 10:39:37;;;;;;;;;;;9.60;99.90;;;;;;5129998;27;20368;-69
2022/01/29 10:42:12;;;;;;;;;;;9.60;99.90;;;;;;5122049;27;19912;-71
2022/01/29 10:44:41;;;;;;;;;;;9.80;99.90;;;;;;5127371;27;19912;-67
2022/01/29 10:47:07;;;;;;;;;;;10.00;99.90;;;;;;5128424;27;20002;-68
2022/01/29 10:49:34;;;;;;;;;;;10.00;99.90;;;;;;5130644;27;19946;-69
2022/01/29 10:52:02;;;;;;;;;;;10.10;99.90;;;;;;5130207;27;19912;-67
2022/01/29 10:54:28;;;;;;;;;;;10.20;99.90;;;;;;5130386;27;19912;-69
2022/01/29 10:57:05;;;;;;;;;;;10.30;99.90;;;;;;5127307;27;19923;-69
2022/01/29 10:59:32;;;;;;;;;;;10.40;99.90;;;;;;5120881;27;19924;-67
2022/01/29 11:02:03;;;;;;;;;;;10.70;99.90;;;;;;5132318;27;19915;-66
2022/01/29 11:04:30;;;;;;;;;;;10.90;99.90;;;;;;5127836;27;19918;-67
2022/01/29 11:06:59;;;;;;;;;;;11.00;99.90;;;;;;5126624;27;20077;-69
2022/01/29 11:09:25;;;;;;;;;;;11.10;99.90;;;;;;5117110;27;19950;-68
2022/01/29 11:11:51;;;;;;;;;;;11.30;99.90;;;;;;5129929;27;19911;-67
2022/01/29 11:14:18;;;;;;;;;;;11.40;99.90;;;;;;5127246;27;19916;-68
2022/01/29 11:16:44;;;;;;;;;;;11.40;99.90;;;;;;5130941;27;20330;-66
2022/01/29 11:19:10;;;;;;;;;;;11.40;99.90;;;;;;5130267;27;20397;-67
2022/01/29 11:21:36;;;;;;;;;;;11.30;99.90;;;;;;5132361;27;19918;-67
2022/01/29 11:24:03;;;;;;;;;;;11.30;99.90;;;;;;5130190;27;19911;-67
2022/01/29 11:26:30;;;;;;;;;;;11.30;99.90;;;;;;5132223;27;19912;-68
2022/01/29 11:29:14;;;;;;;;;;;11.20;99.90;;;;;;5127593;27;19915;-67
2022/01/29 11:31:40;;;;;;;;;;;11.30;99.90;;;;;;5125197;27;20330;-66
2022/01/29 11:34:08;;;;;;;;;;;11.30;99.90;;;;;;5132633;27;20292;-67
2022/01/29 11:36:48;;;;;;;;;;;11.30;99.90;;;;;;5128962;27;19919;-69
2022/01/29 11:39:20;;;;;;;;;;;11.30;99.90;;;;;;5127708;27;19928;-68
2022/01/29 11:42:06;;;;;;;;;;;11.30;99.90;;;;;;5126083;27;19911;-68
2022/01/29 11:44:31;;;;;;;;;;;11.10;99.90;;;;;;5127089;27;19936;-67
2022/01/29 11:47:17;;;;;;;;;;;10.90;99.90;;;;;;5120571;27;20399;-68
2022/01/29 11:49:42;;;;;;;;;;;10.80;99.90;;;;;;5131334;27;20261;-72
2022/01/29 11:52:20;;;;;;;;;;;10.70;99.90;;;;;;5127789;27;19957;-72
2022/01/29 11:54:59;;;;;;;;;;;10.60;99.90;;;;;;5127801;27;19915;-72
2022/01/29 11:57:24;;;;;;;;;;;10.50;99.90;;;;;;5130940;27;19916;-72
2022/01/29 11:59:50;;;;;;;;;;;10.40;99.90;;;;;;5129823;27;20231;-72
2022/01/29 12:02:15;;;;;;;;;;;10.20;99.90;;;;;;5130070;27;19911;-71
2022/01/29 12:05:00;;;;;;;;;;;10.20;99.90;;;;;;5130226;27;19915;-72
2022/01/29 12:09:58;;;;;;;;;;;10.20;99.90;;;;;;5130377;27;19942;-73
2022/01/29 12:12:26;;;;;;;;;;;10.40;99.90;;;;;;5125248;27;20241;-72
2022/01/29 12:14:55;;;;;;;;;;;10.40;99.90;;;;;;5129035;27;19976;-73
2022/01/29 12:17:36;;;;;;;;;;;10.40;99.90;;;;;;5128013;27;19934;-73
2022/01/29 12:20:03;;;;;;;;;;;10.50;99.90;;;;;;5122150;27;20545;-73
2022/01/29 12:22:31;;;;;;;;;;;10.40;99.90;;;;;;5129794;27;19911;-73
2022/01/29 12:25:02;;;;;;;;;;;10.40;99.90;;;;;;5124374;27;19912;-73
2022/01/29 12:27:41;;;;;;;;;;;10.50;99.90;;;;;;5132412;27;19911;-73
2022/01/29 12:30:07;;;;;;;;;;;10.50;99.90;;;;;;5128948;27;19915;-72
2022/01/29 12:32:32;;;;;;;;;;;10.60;99.90;;;;;;5125483;27;19923;-72
2022/01/29 12:34:58;;;;;;;;;;;10.50;99.90;;;;;;5130868;27;19907;-71
2022/01/29 12:37:24;;;;;;;;;;;10.60;99.90;;;;;;5125679;27;19924;-72
2022/01/29 12:39:49;;;;;;;;;;;10.50;99.90;;;;;;5125801;27;19919;-73
2022/01/29 12:42:30;;;;;;;;;;;10.50;99.90;;;;;;5130196;27;19956;-73
2022/01/29 12:44:56;;;;;;;;;;;10.50;99.90;;;;;;5127482;27;20044;-72
2022/01/29 12:47:26;;;;;;;;;;;10.50;99.90;;;;;;5124679;27;20292;-72
2022/01/29 12:49:52;;;;;;;;;;;10.50;99.90;;;;;;5121918;27;19911;-73
2022/01/29 12:52:17;;;;;;;;;;;10.50;99.90;;;;;;5131227;27;19984;-72
2022/01/29 12:54:50;;;;;;;;;;;10.50;99.90;;;;;;5130989;27;20025;-72
2022/01/29 12:57:16;;;;;;;;;;;10.40;99.90;;;;;;5127729;27;19912;-72
2022/01/29 12:59:41;;;;;;;;;;;10.40;99.90;;;;;;5123593;27;19921;-72
2022/01/29 13:02:07;;;;;;;;;;;10.50;99.90;;;;;;5121583;27;20742;-72
2022/01/29 13:04:39;;;;;;;;;;;10.40;99.90;;;;;;5125563;27;19951;-72
2022/01/29 13:07:06;;;;;;;;;;;10.40;99.90;;;;;;5125151;27;19923;-72
2022/01/29 13:09:36;;;;;;;;;;;10.40;99.90;;;;;;5130186;27;19907;-72
2022/01/29 13:12:01;;;;;;;;;;;10.50;99.90;;;;;;5125805;27;19922;-73
2022/01/29 13:14:27;;;;;;;;;;;10.50;99.90;;;;;;5126925;27;19916;-74
2022/01/29 13:16:58;;;;;;;;;;;10.40;99.90;;;;;;5123689;28;19912;-72
2022/01/29 13:19:25;;;;;;;;;;;10.30;99.90;;;;;;5124574;28;19920;-72
2022/01/29 13:21:51;;;;;;;;;;;10.30;99.90;;;;;;5126342;27;20004;-74
2022/01/29 13:24:35;;;;;;;;;;;10.30;99.90;;;;;;5129510;27;19919;-70
2022/01/29 13:27:09;;;;;;;;;;;10.40;99.90;;;;;;5123342;27;19999;-73
2022/01/29 13:30:18;;;;;;;;;;;10.40;99.90;;;;;;5127648;28;19912;-72
2022/01/29 13:32:44;;;;;;;;;;;10.40;99.90;;;;;;5123992;28;19916;-71
2022/01/29 13:35:17;;;;;;;;;;;10.30;99.90;;;;;;5126252;28;19919;-73
2022/01/29 13:37:43;;;;;;;;;;;10.30;99.90;;;;;;5130907;28;20365;-71
2022/01/29 13:40:09;;;;;;;;;;;10.30;99.90;;;;;;5121099;28;19923;-70
2022/01/29 13:42:51;;;;;;;;;;;10.30;99.90;;;;;;5118099;28;20445;-71
2022/01/29 13:45:19;;;;;;;;;;;10.30;99.90;;;;;;5128191;27;19916;-72
2022/01/29 13:48:04;;;;;;;;;;;10.20;99.90;;;;;;5123507;27;19912;-71
2022/01/29 13:50:36;;;;;;;;;;;10.20;99.90;;;;;;5124380;28;19919;-72
2022/01/29 13:53:04;;;;;;;;;;;10.20;99.90;;;;;;5121684;28;20019;-72
2022/01/29 13:55:31;;;;;;;;;;;10.30;99.90;;;;;;5125190;27;19912;-67
2022/01/29 13:57:58;;;;;;;;;;;10.40;99.90;;;;;;5120744;27;19912;-67
2022/01/29 14:00:26;;;;;;;;;;;10.50;99.90;;;;;;5125388;27;19960;-67
2022/01/29 14:02:54;;;;;;;;;;;10.40;99.90;;;;;;5129619;27;20008;-66
2022/01/29 14:05:25;;;;;;;;;;;10.30;99.90;;;;;;5129771;27;19912;-68
2022/01/29 14:07:52;;;;;;;;;;;10.20;99.90;;;;;;5131307;27;19915;-72
2022/01/29 14:10:18;;;;;;;;;;;10.00;99.90;;;;;;5122797;27;19911;-67
2022/01/29 14:12:48;;;;;;;;;;;9.90;99.90;;;;;;5127044;27;19915;-68
2022/01/29 14:15:14;;;;;;;;;;;10.00;99.90;;;;;;5130141;27;19928;-67
2022/01/29 14:17:43;;;;;;;;;;;9.90;99.90;;;;;;5131261;27;19990;-68
2022/01/29 14:20:09;;;;;;;;;;;9.90;99.90;;;;;;5123100;27;19950;-67
2022/01/29 14:22:35;;;;;;;;;;;9.90;99.90;;;;;;5128299;27;20382;-68
2022/01/29 14:25:06;;;;;;;;;;;9.90;99.90;;;;;;5133934;27;19908;-66
2022/01/29 14:27:33;;;;;;;;;;;9.90;99.90;;;;;;5130292;27;19918;-67
2022/01/29 14:29:59;;;;;;;;;;;9.90;99.90;;;;;;5122657;27;19939;-66
2022/01/29 14:32:26;;;;;;;;;;;9.90;99.90;;;;;;5114931;27;19919;-69
2022/01/29 14:34:51;;;;;;;;;;;9.90;99.90;;;;;;5131860;27;19908;-63
2022/01/29 14:37:17;;;;;;;;;;;9.90;99.90;;;;;;5121162;27;20278;-65
2022/01/29 14:39:43;;;;;;;;;;;9.90;99.90;;;;;;5134230;27;19911;-68
2022/01/29 14:42:09;;;;;;;;;;;9.80;99.90;;;;;;5123071;27;19914;-68
2022/01/29 14:44:39;;;;;;;;;;;9.80;99.90;;;;;;5129577;27;19912;-67